Time;durP1;ratioP1;P1;durP2;ratioP2;P2;SDS_P1;SDS_P2;PMS_P1;PMS_P2;Temp;Humidity;BMP_temperature;BMP_pressure;BME280_temperature;BME280_humidity;BME280_pressure;Samples;Min_cycle;Max_cycle;Signal;HPM_P1;HPM_P2
2023/05/15 00:01:44;;;;;;;2.17;1.05;;;;;;;17.01;66.75;100606.31;4992567;28;20093;-65
2023/05/15 00:04:22;;;;;;;1.20;0.70;;;;;;;17.05;66.16;100598.91;4992065;28;20121;-67
2023/05/15 00:07:24;;;;;;;3.13;1.55;;;;;;;17.07;66.42;100595.81;4970273;28;20668;-67
2023/05/15 00:09:58;;;;;;;3.03;0.88;;;;;;;17.11;67.04;100600.03;4969596;28;20039;-64
2023/05/15 00:12:58;;;;;;;2.83;1.30;;;;;;;17.15;66.95;100589.13;4983051;28;20129;-66
2023/05/15 00:16:10;;;;;;;1.42;1.23;;;;;;;17.10;67.10;100589.56;4990012;28;20026;-67
2023/05/15 00:19:10;;;;;;;1.65;0.98;;;;;;;17.01;67.22;100590.00;4988775;28;20686;-67
2023/05/15 00:22:01;;;;;;;2.15;0.88;;;;;;;17.02;67.72;100583.38;4992547;28;20054;-67
2023/05/15 00:24:54;;;;;;;1.70;1.13;;;;;;;16.96;68.38;100589.66;4982352;28;20045;-66
2023/05/15 00:27:47;;;;;;;1.48;1.20;;;;;;;16.85;67.52;100578.84;4969596;28;20034;-65
2023/05/15 00:30:42;;;;;;;1.27;1.10;;;;;;;16.88;68.09;100575.31;4965600;28;20069;-67
2023/05/15 00:33:22;;;;;;;1.50;1.02;;;;;;;16.92;67.42;100575.28;4981132;28;20034;-67
2023/05/15 00:35:58;;;;;;;0.82;0.63;;;;;;;16.99;66.87;100572.53;4990027;28;20514;-66
2023/05/15 00:38:43;;;;;;;2.80;1.35;;;;;;;16.96;67.91;100567.88;4989392;28;20042;-66
2023/05/15 00:41:42;;;;;;;2.35;1.10;;;;;;;17.12;67.50;100568.94;4989161;28;20054;-64
2023/05/15 00:44:54;;;;;;;1.42;0.98;;;;;;;17.27;66.46;100561.41;4989858;28;20038;-64
2023/05/15 00:48:11;;;;;;;3.05;1.63;;;;;;;17.17;66.24;100565.00;4971666;28;20101;-67
2023/05/15 00:51:18;;;;;;;2.53;1.17;;;;;;;17.09;67.20;100558.09;4992704;28;20058;-66
2023/05/15 00:54:49;;;;;;;1.85;0.93;;;;;;;17.22;66.76;100552.91;4982318;28;20046;-66
2023/05/15 00:57:26;;;;;;;1.23;1.05;;;;;;;17.14;66.89;100547.53;4974564;28;20129;-66
2023/05/15 01:00:00;;;;;;;0.98;0.95;;;;;;;17.01;67.50;100551.91;4974700;28;20034;-66
2023/05/15 01:03:01;;;;;;;2.17;0.85;;;;;;;16.90;67.77;100550.44;4988810;28;20042;-65
2023/05/15 01:05:42;;;;;;;1.80;1.23;;;;;;;16.83;68.13;100550.50;4988868;28;20030;-65
2023/05/15 01:08:54;;;;;;;0.88;0.70;;;;;;;16.71;68.68;100556.41;4972156;28;20038;-66
2023/05/15 01:11:35;;;;;;;2.83;0.77;;;;;;;16.64;69.88;100548.28;4981389;28;20153;-66
2023/05/15 01:14:11;;;;;;;2.20;1.10;;;;;;;16.60;69.69;100552.97;4964385;28;20035;-65
2023/05/15 01:17:08;;;;;;;3.17;0.88;;;;;;;16.61;69.01;100549.84;4984615;28;20073;-67
2023/05/15 01:19:48;;;;;;;1.67;1.38;;;;;;;16.43;69.39;100538.28;4981884;28;20535;-66
2023/05/15 01:23:06;;;;;;;1.48;0.93;;;;;;;16.38;69.86;100546.06;4976005;28;20450;-66
2023/05/15 01:26:20;;;;;;;1.27;0.85;;;;;;;16.31;70.01;100536.00;4971501;28;20097;-66
2023/05/15 01:29:42;;;;;;;2.60;0.90;;;;;;;16.26;69.88;100530.97;4944773;28;20042;-66
2023/05/15 01:32:51;;;;;;;1.88;1.15;;;;;;;16.19;69.95;100537.22;4890704;29;20854;-65
2023/05/15 01:35:44;;;;;;;1.25;1.00;;;;;;;16.23;69.83;100524.41;4899814;29;20557;-67
2023/05/15 01:38:40;;;;;;;1.20;0.85;;;;;;;16.15;70.26;100531.03;4894585;29;20044;-67
2023/05/15 01:42:00;;;;;;;1.38;0.80;;;;;;;16.08;70.13;100533.78;4866958;29;20532;-66
2023/05/15 01:45:06;;;;;;;5.97;1.33;;;;;;;16.07;70.51;100532.22;4866831;29;20052;-67
2023/05/15 01:51:25;;;;;;;1.48;0.85;;;;;;;16.10;70.25;100536.13;4900497;29;20080;-67
2023/05/15 01:54:29;;;;;;;1.60;1.00;;;;;;;16.01;70.40;100517.50;4894986;29;20059;-67
2023/05/15 01:57:39;;;;;;;2.03;1.08;;;;;;;16.02;70.16;100524.50;4883785;29;20051;-67
2023/05/15 02:00:40;;;;;;;2.72;1.10;;;;;;;15.93;71.02;100521.41;4897537;29;20573;-67
2023/05/15 02:04:43;;;;;;;1.40;0.80;;;;;;;15.86;71.04;100516.00;4888441;29;20049;-68
2023/05/15 02:11:25;;;;;;;0.90;0.80;;;;;;;15.36;73.56;100515.34;4977426;28;20486;-67
2023/05/15 02:14:01;;;;;;;1.38;0.82;;;;;;;15.30;73.96;100521.53;4994893;28;20034;-67
2023/05/15 02:16:33;;;;;;;1.60;1.08;;;;;;;15.49;73.25;100517.66;4976861;28;20030;-66
2023/05/15 02:19:03;;;;;;;2.72;1.52;;;;;;;15.47;73.08;100512.63;4974240;28;20066;-67
2023/05/15 02:22:07;;;;;;;1.95;1.30;;;;;;;15.47;73.08;100515.34;4992198;28;20062;-65
2023/05/15 02:25:15;;;;;;;2.80;1.05;;;;;;;15.03;74.56;100502.19;4992548;28;20038;-67
2023/05/15 02:27:56;;;;;;;1.50;1.20;;;;;;;15.05;75.11;100513.44;4957858;28;20034;-66
2023/05/15 02:31:07;;;;;;;2.58;1.52;;;;;;;15.06;74.92;100506.81;4994021;28;20145;-67
2023/05/15 02:34:35;;;;;;;2.92;1.55;;;;;;;15.19;74.62;100507.22;4945716;28;20069;-65
2023/05/15 02:37:17;;;;;;;1.55;1.00;;;;;;;15.18;74.48;100508.38;4987007;28;20041;-68
2023/05/15 02:39:56;;;;;;;1.27;0.93;;;;;;;15.15;74.58;100504.53;4994095;28;20042;-67
2023/05/15 02:42:38;;;;;;;2.72;1.38;;;;;;;15.17;74.23;100506.84;4991608;28;20041;-66
2023/05/15 02:45:34;;;;;;;2.05;1.15;;;;;;;15.24;74.25;100506.81;4993370;28;20399;-67
2023/05/15 02:48:40;;;;;;;2.42;1.33;;;;;;;15.20;74.18;100501.41;4951010;28;20448;-67
2023/05/15 02:51:24;;;;;;;3.58;1.33;;;;;;;15.17;74.30;100506.84;4976379;28;20073;-68
2023/05/15 02:54:27;;;;;;;2.28;1.20;;;;;;;15.22;74.47;100501.78;4977678;28;20037;-67
2023/05/15 02:56:54;;;;;;;2.45;1.38;;;;;;;15.19;74.27;100499.09;5686618;22;20846;-70
2023/05/15 02:59:20;;;;;;;2.50;1.40;;;;;;;15.17;74.53;100498.69;4971381;28;20165;-64
2023/05/15 03:01:46;;;;;;;1.98;1.13;;;;;;;15.12;74.69;100496.34;4963147;28;20030;-66
2023/05/15 03:04:15;;;;;;;3.05;1.77;;;;;;;15.06;75.05;100490.56;4982832;28;21196;-63
2023/05/15 03:06:40;;;;;;;4.20;1.65;;;;;;;15.17;74.98;100495.97;4980789;28;20567;-63
2023/05/15 03:09:06;;;;;;;2.50;1.35;;;;;;;15.18;74.77;100481.25;4972326;28;20034;-64
2023/05/15 03:11:32;;;;;;;2.92;1.63;;;;;;;14.90;75.85;100473.13;4951205;28;20446;-64
2023/05/15 03:14:01;;;;;;;1.85;1.45;;;;;;;14.87;76.38;100480.09;4952782;28;20113;-68
2023/05/15 03:16:27;;;;;;;2.63;1.40;;;;;;;14.89;76.43;100482.41;4970806;28;20050;-63
2023/05/15 03:18:53;;;;;;;2.58;1.20;;;;;;;14.90;76.28;100473.13;4967020;28;20455;-63
2023/05/15 03:21:19;;;;;;;3.47;1.60;;;;;;;14.71;77.18;100478.94;4964741;28;20042;-63
2023/05/15 03:23:47;;;;;;;4.20;1.80;;;;;;;14.70;77.14;100467.31;4957315;28;20054;-64
2023/05/15 03:26:12;;;;;;;2.58;1.73;;;;;;;14.35;78.87;100464.56;4970032;28;20034;-63
2023/05/15 03:28:41;;;;;;;3.45;1.92;;;;;;;14.53;78.83;100465.38;4981903;23;20046;-58
2023/05/15 03:31:09;;;;;;;2.95;1.63;;;;;;;14.69;78.41;100473.13;4999272;28;20069;-59
2023/05/15 03:33:34;;;;;;;3.35;2.00;;;;;;;14.75;77.94;100468.88;5010800;28;20040;-58
2023/05/15 03:36:00;;;;;;;1.98;0.95;;;;;;;14.74;77.82;100461.91;5005235;28;20034;-58
2023/05/15 03:38:25;;;;;;;2.28;1.08;;;;;;;14.79;77.61;100464.25;4997361;28;20041;-58
2023/05/15 03:40:51;;;;;;;2.67;1.60;;;;;;;14.81;77.55;100456.47;4994268;28;20026;-58
2023/05/15 03:43:37;;;;;;;3.35;2.00;;;;;;;14.68;77.84;100449.88;4981916;28;20035;-58
2023/05/15 03:46:02;;;;;;;1.65;1.20;;;;;;;14.56;78.78;100461.09;4928626;29;20475;-59
2023/05/15 03:48:28;;;;;;;1.83;1.52;;;;;;;14.53;78.87;100451.81;4929507;29;20126;-58
2023/05/15 03:50:55;;;;;;;2.20;1.33;;;;;;;14.51;78.86;100456.84;4928154;29;20074;-59
2023/05/15 03:53:21;;;;;;;2.35;1.50;;;;;;;14.48;78.45;100452.97;4930038;29;20082;-58
2023/05/15 03:55:46;;;;;;;1.90;1.52;;;;;;;14.46;78.94;100463.41;4925739;29;20043;-59
2023/05/15 03:58:12;;;;;;;3.35;1.60;;;;;;;14.32;79.20;100454.50;4928693;29;20058;-58
2023/05/15 04:00:37;;;;;;;3.33;1.70;;;;;;;14.32;80.06;100447.13;4930557;29;20111;-59
2023/05/15 04:03:03;;;;;;;3.70;1.77;;;;;;;14.45;79.73;100453.75;4924745;29;20043;-59
2023/05/15 04:05:28;;;;;;;4.88;1.98;;;;;;;14.57;79.65;100449.91;4930500;29;20046;-59
2023/05/15 04:07:54;;;;;;;1.95;1.52;;;;;;;14.57;79.70;100452.59;4908818;29;20027;-60
2023/05/15 04:10:19;;;;;;;3.17;1.38;;;;;;;14.56;79.65;100452.97;4927454;29;20039;-59
2023/05/15 04:12:45;;;;;;;3.30;1.10;;;;;;;14.53;79.71;100451.03;4937887;29;20051;-59
2023/05/15 04:15:22;;;;;;;3.10;1.55;;;;;;;14.55;80.17;100446.00;4910857;29;20027;-57
2023/05/15 04:17:51;;;;;;;1.83;1.35;;;;;;;14.54;79.72;100453.38;4929337;29;20050;-57
2023/05/15 04:20:18;;;;;;;1.90;1.05;;;;;;;14.52;79.84;100454.94;4929342;29;20099;-59
2023/05/15 04:22:44;;;;;;;3.42;1.40;;;;;;;14.47;80.42;100445.22;4954307;28;20485;-59
2023/05/15 04:25:11;;;;;;;2.38;1.80;;;;;;;14.47;80.62;100439.81;5010024;28;20061;-59
2023/05/15 04:27:37;;;;;;;2.35;1.42;;;;;;;14.64;80.85;100443.69;4997585;28;20384;-55
2023/05/15 04:30:04;;;;;;;2.15;1.45;;;;;;;14.63;80.51;100448.34;4989293;28;20114;-59
2023/05/15 04:32:32;;;;;;;3.28;1.45;;;;;;;14.70;80.57;100442.16;5003420;28;20116;-56
2023/05/15 04:35:04;;;;;;;4.25;1.85;;;;;;;14.78;80.74;100451.84;4995280;28;20113;-62
2023/05/15 04:37:30;;;;;;;2.15;1.35;;;;;;;14.79;81.10;100447.97;4986540;28;20048;-59
2023/05/15 04:39:56;;;;;;;3.83;1.52;;;;;;;14.74;80.97;100441.00;4992098;28;20448;-59
2023/05/15 04:42:21;;;;;;;3.72;1.92;;;;;;;14.70;81.72;100450.28;4998248;28;20038;-59
2023/05/15 04:44:47;;;;;;;3.90;1.70;;;;;;;14.80;82.00;100439.44;4995809;28;20040;-59
2023/05/15 04:47:12;;;;;;;1.95;1.20;;;;;;;14.85;81.84;100440.97;4998555;28;20025;-59
2023/05/15 04:49:40;;;;;;;1.55;1.45;;;;;;;14.99;81.82;100436.31;4993137;28;20066;-59
2023/05/15 04:52:05;;;;;;;1.40;1.30;;;;;;;15.19;81.01;100434.72;4998262;28;20121;-59
2023/05/15 04:54:31;;;;;;;2.30;1.40;;;;;;;15.44;80.22;100444.78;4999934;28;20559;-59
2023/05/15 04:56:56;;;;;;;2.33;1.38;;;;;;;15.53;79.90;100445.91;4999845;28;20128;-59
2023/05/15 04:59:23;;;;;;;3.17;1.65;;;;;;;15.58;80.00;100445.50;4993481;28;20026;-59
2023/05/15 05:01:50;;;;;;;2.33;1.83;;;;;;;15.60;79.75;100443.16;5000219;28;20043;-59
2023/05/15 05:04:18;;;;;;;3.42;2.03;;;;;;;15.70;79.36;100439.66;4995171;28;20069;-59
2023/05/15 05:06:44;;;;;;;2.28;1.50;;;;;;;15.75;79.30;100441.19;4994512;28;20236;-57
2023/05/15 05:09:10;;;;;;;1.92;1.48;;;;;;;15.81;79.30;100439.63;5003832;28;20429;-59
2023/05/15 05:11:37;;;;;;;3.13;1.52;;;;;;;15.88;78.95;100434.91;5010904;28;20030;-58
2023/05/15 05:14:03;;;;;;;3.95;1.85;;;;;;;15.93;78.29;100437.22;5008986;28;20033;-59
2023/05/15 05:16:28;;;;;;;3.42;1.42;;;;;;;15.95;78.12;100445.75;4998539;28;20544;-59
2023/05/15 05:18:54;;;;;;;3.30;1.83;;;;;;;16.02;78.70;100432.13;4994018;28;20030;-58
2023/05/15 05:21:19;;;;;;;2.35;1.60;;;;;;;16.09;79.01;100440.22;4976195;28;20045;-57
2023/05/15 05:23:46;;;;;;;2.67;1.60;;;;;;;16.40;78.01;100438.50;4977225;28;20038;-58
2023/05/15 05:26:11;;;;;;;3.80;2.22;;;;;;;16.73;76.78;100445.25;5007592;28;20053;-57
2023/05/15 05:28:37;;;;;;;3.80;1.88;;;;;;;17.12;75.36;100451.13;5000601;28;20644;-57
2023/05/15 05:31:02;;;;;;;3.13;1.88;;;;;;;17.43;74.12;100452.75;4993608;28;20034;-59
2023/05/15 05:33:28;;;;;;;2.90;1.90;;;;;;;17.66;73.00;100450.19;4987853;28;20396;-60
2023/05/15 05:35:54;;;;;;;3.92;1.52;;;;;;;17.95;72.24;100448.66;4999088;28;20030;-58
2023/05/15 05:38:19;;;;;;;3.00;1.45;;;;;;;18.22;70.63;100447.88;4992383;28;20053;-56
2023/05/15 05:40:45;;;;;;;2.38;1.50;;;;;;;18.34;69.70;100444.59;4996735;28;20042;-59
2023/05/15 05:43:10;;;;;;;3.45;1.17;;;;;;;18.58;67.47;100446.22;4996244;28;20029;-59
2023/05/15 05:45:38;;;;;;;2.58;1.35;;;;;;;18.83;67.78;100449.31;4988843;28;20069;-58
2023/05/15 05:48:06;;;;;;;2.50;1.50;;;;;;;19.08;67.37;100444.22;4997531;28;20112;-58
2023/05/15 05:50:32;;;;;;;2.75;1.30;;;;;;;19.20;67.00;100448.28;5003547;28;20029;-58
2023/05/15 05:52:57;;;;;;;4.80;1.55;;;;;;;19.16;63.87;100448.34;5006855;28;20041;-59
2023/05/15 05:55:23;;;;;;;1.67;1.10;;;;;;;19.36;64.26;100448.38;4991311;28;20030;-58
2023/05/15 05:57:48;;;;;;;1.50;1.10;;;;;;;19.52;63.18;100446.53;4989700;28;20029;-59
2023/05/15 06:00:14;;;;;;;2.13;1.17;;;;;;;19.72;62.92;100460.94;4993135;28;20113;-58
2023/05/15 06:02:40;;;;;;;2.47;1.17;;;;;;;19.92;60.95;100446.50;4992846;28;20042;-57
2023/05/15 06:05:06;;;;;;;2.45;1.52;;;;;;;20.08;60.86;100452.78;4992957;28;20030;-55
2023/05/15 06:07:32;;;;;;;3.72;1.58;;;;;;;20.28;61.05;100448.06;4996486;28;20028;-56
2023/05/15 06:09:58;;;;;;;2.00;1.17;;;;;;;20.41;61.31;100451.66;5005950;28;20033;-57
2023/05/15 06:12:23;;;;;;;4.00;1.80;;;;;;;20.54;60.57;100446.28;4998570;28;20076;-56
2023/05/15 06:14:49;;;;;;;2.42;1.45;;;;;;;20.57;61.03;100445.44;4990815;28;20413;-58
2023/05/15 06:17:14;;;;;;;2.60;1.38;;;;;;;20.73;61.41;100445.41;4991500;28;20073;-55
2023/05/15 06:19:39;;;;;;;2.17;1.27;;;;;;;20.72;61.87;100446.63;4992472;28;20029;-59
2023/05/15 06:22:05;;;;;;;2.05;1.45;;;;;;;20.82;60.90;100442.84;4992302;28;20409;-59
2023/05/15 06:24:30;;;;;;;1.73;1.27;;;;;;;20.95;60.43;100443.69;4993152;28;20089;-57
2023/05/15 06:26:59;;;;;;;2.75;1.38;;;;;;;21.04;60.47;100438.38;4998261;28;20497;-59
2023/05/15 06:29:25;;;;;;;2.65;1.35;;;;;;;21.10;60.45;100438.66;4993277;28;20445;-59
2023/05/15 06:31:51;;;;;;;2.70;1.52;;;;;;;21.20;59.47;100438.38;4992203;28;20122;-57
2023/05/15 06:34:16;;;;;;;1.80;0.98;;;;;;;21.25;58.02;100429.59;5000664;28;20029;-58
2023/05/15 06:36:42;;;;;;;1.30;0.90;;;;;;;21.41;58.77;100429.56;4991712;28;20030;-59
2023/05/15 06:39:09;;;;;;;1.48;0.95;;;;;;;21.61;57.83;100442.34;4992195;28;20023;-55
2023/05/15 06:41:36;;;;;;;2.38;0.90;;;;;;;21.69;56.94;100435.44;4991963;28;20038;-55
2023/05/15 06:44:01;;;;;;;1.00;0.90;;;;;;;21.86;56.92;100436.94;5003536;28;20447;-58
2023/05/15 06:46:27;;;;;;;1.25;0.80;;;;;;;22.05;55.87;100425.75;4999495;28;20161;-57
2023/05/15 06:48:52;;;;;;;1.55;0.80;;;;;;;22.00;54.63;100420.84;4992399;28;20108;-58
2023/05/15 06:51:18;;;;;;;1.33;0.80;;;;;;;22.23;53.75;100420.50;4993679;28;20034;-56
2023/05/15 06:53:43;;;;;;;1.23;0.90;;;;;;;22.36;53.69;100415.78;5001451;28;20029;-59
2023/05/15 06:56:11;;;;;;;0.77;0.70;;;;;;;22.50;52.79;100420.03;4992095;28;20512;-60
2023/05/15 06:58:37;;;;;;;0.75;0.63;;;;;;;22.61;52.55;100419.75;5007409;28;20022;-59
2023/05/15 07:01:04;;;;;;;1.15;0.90;;;;;;;22.68;52.16;100411.25;4999066;28;20464;-60
2023/05/15 07:03:30;;;;;;;1.10;0.63;;;;;;;22.81;51.86;100412.00;4992389;28;20382;-58
2023/05/15 07:05:56;;;;;;;0.50;0.50;;;;;;;22.94;50.63;100416.22;4991972;28;20030;-60
2023/05/15 07:08:21;;;;;;;1.02;0.70;;;;;;;22.97;49.82;100418.09;4993684;28;20033;-58
2023/05/15 07:10:48;;;;;;;0.80;0.50;;;;;;;23.03;49.33;100412.81;4984727;28;20044;-59
2023/05/15 07:13:17;;;;;;;1.02;0.70;;;;;;;23.15;49.92;100412.75;4991957;28;20065;-60
2023/05/15 07:15:43;;;;;;;0.73;0.60;;;;;;;23.25;49.77;100399.84;4991572;28;20034;-60
2023/05/15 07:18:09;;;;;;;0.70;0.52;;;;;;;23.24;49.75;100401.06;4996701;28;20504;-57
2023/05/15 07:20:35;;;;;;;0.50;0.45;;;;;;;23.26;48.51;100401.38;5008782;28;20088;-60
2023/05/15 07:23:00;;;;;;;1.88;0.65;;;;;;;23.27;48.72;100398.19;4998887;28;20033;-60
2023/05/15 07:25:26;;;;;;;1.80;0.55;;;;;;;23.29;49.08;100403.22;5004484;28;20034;-58
2023/05/15 07:27:52;;;;;;;1.67;0.60;;;;;;;23.35;48.51;100395.19;4988505;28;20508;-58
2023/05/15 07:30:17;;;;;;;0.60;0.40;;;;;;;23.44;48.80;100398.78;4971700;28;20440;-60
2023/05/15 07:32:43;;;;;;;1.25;0.55;;;;;;;23.64;48.96;100403.94;4995641;28;20060;-60
2023/05/15 07:35:10;;;;;;;0.75;0.63;;;;;;;23.78;47.46;100397.91;4992567;28;20030;-58
2023/05/15 07:37:36;;;;;;;1.63;0.52;;;;;;;23.98;47.26;100401.06;4993198;28;20039;-59
2023/05/15 07:40:03;;;;;;;0.68;0.50;;;;;;;24.15;46.91;100396.88;4990976;28;20042;-59
2023/05/15 07:42:28;;;;;;;1.25;0.70;;;;;;;24.22;47.08;100395.81;4991034;28;20393;-57
2023/05/15 07:44:54;;;;;;;0.55;0.50;;;;;;;24.39;45.08;100391.63;4989715;28;20049;-56
2023/05/15 07:47:19;;;;;;;0.63;0.40;;;;;;;24.50;45.19;100389.97;4984147;28;20030;-59
2023/05/15 07:49:45;;;;;;;0.93;0.57;;;;;;;24.64;44.69;100385.84;4988817;28;20038;-57
2023/05/15 07:52:10;;;;;;;0.75;0.40;;;;;;;24.80;44.79;100385.56;5006491;28;20030;-58
2023/05/15 07:54:38;;;;;;;0.85;0.60;;;;;;;24.95;43.83;100383.75;4990694;28;20484;-55
2023/05/15 07:57:25;;;;;;;1.52;0.50;;;;;;;25.05;42.58;100388.78;4993469;28;20049;-54
2023/05/15 07:59:50;;;;;;;0.60;0.35;;;;;;;25.09;41.93;100388.63;4929135;29;20048;-59
2023/05/15 08:02:16;;;;;;;0.65;0.52;;;;;;;25.17;42.69;100387.09;4927717;29;20481;-54
2023/05/15 08:04:41;;;;;;;0.60;0.40;;;;;;;25.33;42.42;100375.75;4929697;29;20039;-56
2023/05/15 08:07:07;;;;;;;0.50;0.50;;;;;;;25.30;42.89;100384.94;4929537;29;20047;-58
2023/05/15 08:09:33;;;;;;;1.17;0.38;;;;;;;25.38;41.64;100377.88;4910312;29;20458;-56
2023/05/15 08:12:16;;;;;;;0.85;0.60;;;;;;;25.52;42.16;100382.03;4929464;29;20789;-57
2023/05/15 08:14:41;;;;;;;0.77;0.60;;;;;;;25.60;41.95;100386.00;4930018;29;20384;-58
2023/05/15 08:17:07;;;;;;;0.55;0.47;;;;;;;25.67;40.92;100375.38;4927205;29;20039;-57
2023/05/15 08:19:32;;;;;;;1.08;0.57;;;;;;;25.81;40.91;100379.47;4928671;29;20510;-58
2023/05/15 08:21:58;;;;;;;0.90;0.63;;;;;;;25.92;40.14;100372.22;4911780;29;20047;-59
2023/05/15 08:24:23;;;;;;;0.80;0.52;;;;;;;26.06;39.50;100368.06;4925147;29;20048;-58
2023/05/15 08:26:49;;;;;;;0.52;0.50;;;;;;;26.22;40.59;100367.69;4921277;29;20046;-58
2023/05/15 08:29:15;;;;;;;1.65;0.57;;;;;;;26.23;39.90;100363.66;4923180;29;20153;-58
2023/05/15 08:31:41;;;;;;;0.82;0.57;;;;;;;26.38;40.15;100367.28;4926969;29;20036;-55
2023/05/15 08:34:06;;;;;;;0.63;0.32;;;;;;;26.55;39.24;100370.38;4927482;29;20034;-55
2023/05/15 08:36:32;;;;;;;0.77;0.50;;;;;;;26.73;39.25;100368.28;4944931;28;20457;-58
2023/05/15 08:38:58;;;;;;;1.73;0.90;;;;;;;26.87;38.67;100360.50;4993768;28;20149;-58
2023/05/15 08:41:41;;;;;;;0.65;0.50;;;;;;;27.04;37.86;100364.34;4992055;28;20117;-57
2023/05/15 08:44:08;;;;;;;0.55;0.55;;;;;;;27.01;37.14;100362.53;4989245;28;20545;-57
2023/05/15 08:46:40;;;;;;;1.02;0.60;;;;;;;27.02;35.78;100359.31;4995140;28;20572;-55
2023/05/15 08:49:14;;;;;;;1.35;0.40;;;;;;;26.99;37.62;100362.22;4988206;28;20735;-58
2023/05/15 08:51:39;;;;;;;1.00;0.70;;;;;;;27.08;37.68;100356.63;4970667;28;20122;-57
2023/05/15 08:54:05;;;;;;;0.70;0.60;;;;;;;27.23;38.44;100355.41;4991751;28;20059;-58
2023/05/15 08:56:31;;;;;;;0.60;0.60;;;;;;;27.40;36.74;100359.25;4993434;28;20042;-57
2023/05/15 08:58:57;;;;;;;0.50;0.50;;;;;;;27.38;37.10;100349.91;4987739;28;20121;-56
2023/05/15 09:01:23;;;;;;;0.70;0.50;;;;;;;27.44;38.23;100343.22;4994542;28;20651;-55
2023/05/15 09:03:48;;;;;;;1.63;0.70;;;;;;;27.57;36.70;100340.16;4994944;28;20113;-58
2023/05/15 09:06:14;;;;;;;1.08;0.73;;;;;;;27.57;36.63;100338.16;4989437;28;20061;-58
2023/05/15 09:08:41;;;;;;;0.50;0.50;;;;;;;27.59;37.76;100345.97;4993778;28;20038;-58
2023/05/15 09:11:12;;;;;;;0.95;0.65;;;;;;;27.71;36.34;100344.16;4995200;28;20124;-57
2023/05/15 09:13:37;;;;;;;1.58;0.50;;;;;;;27.72;35.81;100340.16;4994888;28;20057;-58
2023/05/15 09:16:03;;;;;;;1.38;0.70;;;;;;;27.95;36.61;100339.28;4978447;28;20488;-58
2023/05/15 09:18:29;;;;;;;0.93;0.73;;;;;;;28.03;36.56;100338.38;4987008;28;20026;-57
2023/05/15 09:20:54;;;;;;;0.50;0.40;;;;;;;28.09;35.25;100332.91;4987667;28;20042;-56
2023/05/15 09:23:25;;;;;;;0.77;0.60;;;;;;;28.20;35.39;100335.84;4988894;28;21442;-53
2023/05/15 09:25:52;;;;;;;1.20;0.70;;;;;;;28.33;35.66;100333.50;4999442;28;20035;-56
2023/05/15 09:28:33;;;;;;;0.40;0.40;;;;;;;28.37;35.12;100332.06;4991155;28;20100;-57
2023/05/15 09:31:03;;;;;;;0.47;0.40;;;;;;;28.49;35.24;100330.91;4991609;28;20058;-59
2023/05/15 09:33:30;;;;;;;0.40;0.40;;;;;;;28.59;35.64;100323.25;4997055;28;20116;-56
2023/05/15 09:35:55;;;;;;;0.82;0.60;;;;;;;28.63;34.36;100326.56;4999736;28;20614;-53
2023/05/15 09:38:21;;;;;;;0.90;0.75;;;;;;;28.76;35.53;100329.00;4990979;28;20028;-57
2023/05/15 09:40:46;;;;;;;0.60;0.40;;;;;;;28.82;35.45;100325.06;4993971;28;20737;-58
2023/05/15 09:43:12;;;;;;;0.60;0.47;;;;;;;28.87;34.40;100323.56;4991702;28;20405;-58
2023/05/15 09:45:37;;;;;;;1.13;0.60;;;;;;;28.86;34.77;100324.84;5004686;28;20034;-54
2023/05/15 09:48:04;;;;;;;1.00;0.90;;;;;;;28.95;34.48;100324.66;4992748;28;20030;-56
2023/05/15 09:50:37;;;;;;;0.85;0.65;;;;;;;29.04;34.00;100318.94;4999028;28;20461;-54
2023/05/15 09:53:04;;;;;;;1.10;0.80;;;;;;;29.03;33.96;100323.00;4996496;28;20137;-58
2023/05/15 09:55:33;;;;;;;1.42;0.60;;;;;;;29.16;34.76;100323.38;4989658;28;20633;-57
2023/05/15 09:58:11;;;;;;;0.60;0.60;;;;;;;29.25;34.32;100325.97;5011439;28;20072;-57
2023/05/15 10:00:38;;;;;;;0.77;0.77;;;;;;;29.16;32.47;100315.84;5000115;28;21342;-57
2023/05/15 10:03:05;;;;;;;0.50;0.50;;;;;;;29.42;33.46;100313.78;4994488;28;20026;-56
2023/05/15 10:05:30;;;;;;;0.73;0.73;;;;;;;29.60;33.65;100309.88;5003222;28;20034;-57
2023/05/15 10:07:57;;;;;;;0.85;0.60;;;;;;;29.69;33.63;100315.25;5004841;28;20092;-57
2023/05/15 10:10:24;;;;;;;0.82;0.50;;;;;;;29.96;34.42;100308.38;4994268;28;20030;-57
2023/05/15 10:12:51;;;;;;;1.05;0.90;;;;;;;29.94;33.62;100308.88;4999548;28;20038;-57
2023/05/15 10:15:17;;;;;;;0.93;0.57;;;;;;;30.07;33.72;100306.44;5004395;28;20116;-56
2023/05/15 10:17:44;;;;;;;1.05;0.60;;;;;;;30.10;33.08;100310.22;5001407;28;20033;-58
2023/05/15 10:20:11;;;;;;;3.40;0.70;;;;;;;30.33;32.59;100311.13;5000149;28;20065;-58
2023/05/15 10:22:40;;;;;;;0.85;0.57;;;;;;;30.23;32.23;100310.53;4988561;28;20405;-55
2023/05/15 10:25:24;;;;;;;0.60;0.50;;;;;;;30.27;32.69;100309.06;5002540;28;20385;-56
2023/05/15 10:27:53;;;;;;;1.00;0.55;;;;;;;30.39;32.73;100307.09;4995553;28;20050;-55
2023/05/15 10:30:20;;;;;;;3.08;0.95;;;;;;;30.53;33.23;100308.16;4990055;28;20533;-57
2023/05/15 10:32:48;;;;;;;0.63;0.60;;;;;;;30.81;33.31;100297.88;4992758;28;20062;-58
2023/05/15 10:35:16;;;;;;;0.70;0.50;;;;;;;31.14;32.11;100300.75;4997968;28;20034;-59
2023/05/15 10:37:44;;;;;;;0.85;0.65;;;;;;;31.25;31.46;100288.84;4996929;28;20060;-55
2023/05/15 10:40:10;;;;;;;0.80;0.63;;;;;;;31.31;32.22;100301.50;4995224;28;20054;-54
2023/05/15 10:42:37;;;;;;;1.23;0.50;;;;;;;31.27;31.72;100298.19;4991578;28;20041;-56
2023/05/15 10:45:04;;;;;;;0.80;0.63;;;;;;;30.99;31.73;100303.00;4993384;28;20049;-57
2023/05/15 10:47:31;;;;;;;0.63;0.43;;;;;;;30.98;31.58;100299.44;4971888;28;20679;-57
2023/05/15 10:49:57;;;;;;;0.82;0.70;;;;;;;30.96;31.67;100293.63;4996937;22;20057;-66
2023/05/15 10:52:23;;;;;;;0.57;0.50;;;;;;;30.89;31.39;100285.03;4951009;28;20081;-66
2023/05/15 10:54:56;;;;;;;0.50;0.50;;;;;;;31.00;31.42;100285.03;4958577;28;20034;-66
2023/05/15 10:57:22;;;;;;;0.65;0.60;;;;;;;31.04;31.43;100274.41;4968124;28;20077;-65
2023/05/15 10:59:49;;;;;;;1.20;0.73;;;;;;;31.31;30.35;100273.66;4951240;28;20062;-66
2023/05/15 11:02:24;;;;;;;1.08;0.70;;;;;;;31.26;30.47;100280.00;4948815;28;20054;-67
2023/05/15 11:04:57;;;;;;;0.90;0.50;;;;;;;31.24;31.49;100276.94;4959956;28;20039;-65
2023/05/15 11:07:25;;;;;;;0.55;0.45;;;;;;;31.37;29.37;100291.16;4967210;28;20110;-66
2023/05/15 11:09:52;;;;;;;0.68;0.47;;;;;;;31.23;29.51;100274.66;4964375;28;20018;-66
2023/05/15 11:12:18;;;;;;;0.95;0.52;;;;;;;31.37;30.75;100274.44;4962717;28;20403;-65
2023/05/15 11:15:09;;;;;;;0.88;0.45;;;;;;;31.57;30.64;100263.00;4953906;28;20039;-66
2023/05/15 11:17:35;;;;;;;1.08;0.60;;;;;;;31.76;30.23;100268.81;4952228;28;20035;-66
2023/05/15 11:20:00;;;;;;;1.05;0.63;;;;;;;31.60;31.17;100264.78;4949714;28;20056;-66
2023/05/15 11:22:48;;;;;;;0.45;0.45;;;;;;;31.29;29.49;100270.63;4960960;28;20121;-65
2023/05/15 11:25:14;;;;;;;0.85;0.68;;;;;;;30.76;29.91;100268.75;4908366;29;20139;-66
2023/05/15 11:27:42;;;;;;;0.82;0.57;;;;;;;30.41;30.33;100264.91;4905914;29;20555;-65
2023/05/15 11:30:07;;;;;;;0.57;0.40;;;;;;;30.14;30.97;100250.34;4930260;29;20458;-65
2023/05/15 11:32:59;;;;;;;0.80;0.65;;;;;;;29.96;31.81;100259.13;4919179;29;20035;-65
2023/05/15 11:35:28;;;;;;;0.85;0.70;;;;;;;29.72;31.86;100252.41;4920100;29;20043;-65
2023/05/15 11:37:58;;;;;;;1.23;0.60;;;;;;;29.52;32.05;100247.72;4914577;29;20051;-66
2023/05/15 11:40:26;;;;;;;0.77;0.73;;;;;;;29.29;32.48;100248.81;4928302;29;20171;-65
2023/05/15 11:43:07;;;;;;;0.70;0.65;;;;;;;29.36;32.57;100240.78;4913901;29;20130;-66
2023/05/15 11:45:37;;;;;;;0.93;0.68;;;;;;;29.22;32.55;100240.94;4914004;29;20116;-65
2023/05/15 11:48:05;;;;;;;0.73;0.53;;;;;;;28.94;33.79;100242.72;4914143;29;20055;-66
2023/05/15 11:50:32;;;;;;;1.92;0.70;;;;;;;28.88;33.58;100239.84;4914941;29;20043;-65
2023/05/15 11:53:03;;;;;;;1.48;0.90;;;;;;;28.51;33.21;100238.97;4915174;29;20055;-65
2023/05/15 11:55:31;;;;;;;0.90;0.60;;;;;;;28.34;34.03;100238.78;4925203;29;20047;-65
2023/05/15 11:57:56;;;;;;;0.82;0.77;;;;;;;28.40;34.40;100233.28;4911846;29;20052;-65
2023/05/15 12:00:22;;;;;;;0.77;0.60;;;;;;;28.47;34.85;100230.84;4910090;29;20050;-66